createdAt,value
2022-10-18T00:00:17.336Z,14.48
2022-10-18T00:03:20.329Z,18.10
2022-10-18T00:06:22.506Z,14.85
2022-10-18T00:09:25.094Z,15.65
2022-10-18T00:12:27.175Z,16.33
2022-10-18T00:15:29.138Z,19.12
2022-10-18T00:18:31.527Z,16.27
2022-10-18T00:21:33.645Z,17.75
2022-10-18T00:24:35.740Z,14.95
2022-10-18T00:27:37.844Z,17.08
2022-10-18T00:30:39.929Z,14.65
2022-10-18T00:33:43.261Z,16.10
2022-10-18T00:36:45.570Z,19.05
2022-10-18T00:39:47.563Z,17.25
2022-10-18T00:42:49.570Z,15.00
2022-10-18T00:45:51.630Z,15.38
2022-10-18T00:48:56.598Z,13.77
2022-10-18T00:52:09.254Z,15.00
2022-10-18T00:55:11.735Z,16.02
2022-10-18T00:58:16.654Z,18.48
2022-10-18T01:01:18.708Z,15.15
2022-10-18T01:04:21.746Z,13.33
2022-10-18T01:07:26.834Z,14.40
2022-10-18T01:10:56.785Z,16.17
2022-10-18T01:14:36.122Z,16.92
2022-10-18T01:18:14.123Z,14.52
2022-10-18T01:21:24.859Z,15.17
2022-10-18T01:24:45.530Z,12.57
2022-10-18T01:27:59.260Z,13.02
2022-10-18T01:31:10.187Z,15.05
2022-10-18T01:34:16.945Z,14.07
2022-10-18T01:37:21.544Z,19.20
2022-10-18T01:40:25.493Z,15.73
2022-10-18T01:43:29.873Z,18.17
2022-10-18T01:46:33.483Z,14.13
2022-10-18T01:49:35.735Z,14.27
2022-10-18T01:52:51.553Z,17.00
2022-10-18T01:56:18.247Z,13.80
2022-10-18T01:59:38.933Z,18.73
2022-10-18T02:02:48.616Z,13.93
2022-10-18T02:05:59.302Z,13.75
2022-10-18T02:09:11.193Z,13.37
2022-10-18T02:12:15.517Z,14.05
2022-10-18T02:15:22.526Z,17.10
2022-10-18T02:18:33.124Z,14.87
2022-10-18T02:21:36.099Z,15.32
2022-10-18T02:24:43.039Z,16.77
2022-10-18T02:27:45.157Z,16.30
2022-10-18T02:31:05.714Z,16.62
2022-10-18T02:34:16.894Z,17.85
2022-10-18T02:37:20.677Z,15.00
2022-10-18T02:40:25.976Z,16.47
2022-10-18T02:43:27.986Z,16.98
2022-10-18T02:46:30.030Z,16.98
2022-10-18T02:49:32.372Z,16.58
2022-10-18T02:52:34.431Z,17.73
2022-10-18T02:55:36.388Z,16.20
2022-10-18T02:58:38.423Z,15.63
2022-10-18T03:01:40.813Z,15.68
2022-10-18T03:04:42.925Z,15.55
2022-10-18T03:07:48.504Z,21.05
2022-10-18T03:10:50.689Z,16.37
2022-10-18T03:13:52.695Z,14.60
2022-10-18T03:16:54.679Z,18.30
2022-10-18T03:19:56.682Z,17.92
2022-10-18T03:22:58.602Z,18.85
2022-10-18T03:26:00.713Z,19.20
2022-10-18T03:29:02.959Z,18.62
2022-10-18T03:32:05.301Z,18.77
2022-10-18T03:35:09.278Z,20.35
2022-10-18T03:38:11.418Z,18.33
2022-10-18T03:41:13.573Z,15.90
2022-10-18T03:44:15.489Z,18.90
2022-10-18T03:47:17.559Z,19.17
2022-10-18T03:50:20.062Z,21.27
2022-10-18T03:53:22.095Z,16.75
2022-10-18T03:56:24.055Z,16.30
2022-10-18T03:59:26.124Z,17.05
2022-10-18T04:02:28.073Z,17.25
2022-10-18T04:05:31.399Z,16.33
2022-10-18T04:08:33.458Z,16.37
2022-10-18T04:11:35.436Z,19.10
2022-10-18T04:14:37.429Z,14.77
2022-10-18T04:17:39.473Z,19.05
2022-10-18T04:20:41.609Z,21.50
2022-10-18T04:23:43.550Z,19.33
2022-10-18T04:26:45.878Z,16.93
2022-10-18T04:29:47.792Z,17.50
2022-10-18T04:32:49.836Z,16.85
2022-10-18T04:35:53.489Z,17.83
2022-10-18T04:38:55.543Z,18.65
2022-10-18T04:41:57.570Z,16.83
2022-10-18T04:44:59.516Z,18.50
2022-10-18T04:48:01.639Z,20.00
2022-10-18T04:51:03.820Z,18.55
2022-10-18T04:54:05.881Z,18.65
2022-10-18T04:57:07.861Z,21.60
2022-10-18T05:00:10.220Z,19.73
2022-10-18T05:03:14.001Z,18.12
2022-10-18T05:06:16.026Z,17.77
2022-10-18T05:09:18.024Z,22.37
2022-10-18T05:12:20.152Z,19.47
2022-10-18T05:15:22.201Z,20.80
2022-10-18T05:18:24.183Z,18.05
2022-10-18T05:21:26.198Z,21.20
2022-10-18T05:24:28.272Z,21.08
2022-10-18T05:27:30.357Z,22.80
2022-10-18T05:30:32.407Z,21.42
2022-10-18T05:33:34.471Z,19.77
2022-10-18T05:36:36.546Z,22.17
2022-10-18T05:39:39.036Z,21.83
2022-10-18T05:42:40.992Z,20.87
2022-10-18T05:45:48.112Z,18.90
2022-10-18T05:48:51.459Z,20.27
2022-10-18T05:51:53.707Z,25.37
2022-10-18T05:54:55.720Z,22.42
2022-10-18T05:57:57.652Z,21.93
2022-10-18T06:01:04.194Z,23.92
2022-10-18T06:04:06.461Z,23.55
2022-10-18T06:07:10.141Z,22.13
2022-10-18T06:10:17.688Z,20.92
2022-10-18T06:13:19.633Z,23.73
2022-10-18T06:16:22.882Z,21.77
2022-10-18T06:19:24.910Z,24.27
2022-10-18T06:22:26.979Z,25.10
2022-10-18T06:25:28.964Z,111.40
2022-10-18T06:28:31.161Z,33.93
2022-10-18T06:31:33.199Z,28.95
2022-10-18T06:34:35.344Z,23.30
2022-10-18T06:37:38.321Z,23.65
2022-10-18T06:40:42.172Z,23.87
2022-10-18T06:43:53.117Z,23.73
2022-10-18T06:46:55.106Z,21.80
2022-10-18T06:49:57.051Z,23.00
2022-10-18T06:52:59.007Z,23.35
2022-10-18T06:56:02.849Z,20.85
2022-10-18T06:59:05.386Z,22.13
2022-10-18T07:02:07.598Z,17.85
2022-10-18T07:05:11.255Z,20.75
2022-10-18T07:08:13.203Z,19.92
2022-10-18T07:11:25.215Z,26.67
2022-10-18T07:14:29.193Z,28.37
2022-10-18T07:17:31.546Z,22.98
2022-10-18T07:20:34.047Z,24.35
2022-10-18T07:23:38.281Z,18.42
2022-10-18T07:26:40.208Z,19.00
2022-10-18T07:29:42.246Z,18.53
2022-10-18T07:32:44.215Z,18.05
2022-10-18T07:35:46.344Z,19.02
2022-10-18T07:38:49.420Z,19.27
2022-10-18T07:41:51.517Z,17.50
2022-10-18T07:44:53.458Z,18.90
2022-10-18T07:47:56.673Z,19.23
2022-10-18T07:51:00.988Z,17.25
2022-10-18T07:54:03.170Z,20.02
2022-10-18T07:57:05.494Z,18.75
2022-10-18T08:00:09.158Z,22.37
2022-10-18T08:03:11.357Z,22.58
2022-10-18T08:06:16.511Z,17.67
2022-10-18T08:09:18.508Z,18.55
2022-10-18T08:12:20.447Z,19.73
2022-10-18T08:15:25.057Z,23.50
2022-10-18T08:18:26.990Z,26.95
2022-10-18T08:21:28.951Z,30.23
2022-10-18T08:24:31.041Z,30.37
2022-10-18T08:27:33.188Z,28.52
2022-10-18T08:30:36.749Z,28.47
2022-10-18T08:33:39.933Z,34.45
2022-10-18T08:36:41.825Z,30.80
2022-10-18T08:39:43.798Z,35.65
2022-10-18T08:42:52.766Z,28.58
2022-10-18T08:45:55.226Z,30.27
2022-10-18T08:48:57.410Z,30.95
2022-10-18T08:51:59.494Z,28.38
2022-10-18T08:55:10.606Z,22.98
2022-10-18T08:58:17.906Z,21.70
2022-10-18T09:01:26.081Z,23.90
2022-10-18T09:04:40.242Z,22.52
2022-10-18T09:07:47.980Z,19.98
2022-10-18T09:10:49.926Z,23.42
2022-10-18T09:14:37.597Z,22.20
2022-10-18T09:17:57.575Z,21.90
2022-10-18T09:21:06.577Z,22.98
2022-10-18T09:24:25.653Z,20.52
2022-10-18T09:27:59.889Z,23.12
2022-10-18T09:31:05.048Z,21.23
2022-10-18T09:34:24.898Z,19.87
2022-10-18T09:37:30.843Z,19.75
2022-10-18T09:40:37.803Z,21.02
2022-10-18T09:43:51.041Z,19.70
2022-10-18T09:47:00.622Z,19.37
2022-10-18T09:50:13.819Z,19.13
2022-10-18T09:53:37.069Z,18.60
2022-10-18T09:56:50.221Z,23.77
2022-10-18T09:59:52.585Z,20.98
2022-10-18T10:02:54.745Z,18.98
2022-10-18T10:06:25.342Z,20.57
2022-10-18T10:09:37.185Z,18.52
2022-10-18T10:12:41.088Z,19.42
2022-10-18T10:15:52.168Z,17.83
2022-10-18T10:18:54.666Z,15.82
2022-10-18T10:22:05.317Z,15.70
2022-10-18T10:25:19.357Z,17.92
2022-10-18T10:28:30.564Z,17.23
2022-10-18T10:31:34.430Z,16.42
2022-10-18T10:34:37.308Z,17.08
2022-10-18T10:37:40.814Z,15.60
2022-10-18T10:40:50.468Z,14.15
2022-10-18T10:43:52.789Z,15.38
2022-10-18T10:46:55.444Z,17.12
2022-10-18T10:49:57.714Z,15.43
2022-10-18T10:52:59.957Z,15.03
2022-10-18T10:56:03.249Z,16.52
2022-10-18T10:59:08.611Z,14.30
2022-10-18T11:02:20.709Z,17.48
2022-10-18T11:05:27.179Z,16.42
2022-10-18T11:08:38.948Z,15.20
2022-10-18T11:11:50.020Z,18.25
2022-10-18T11:15:14.275Z,14.65
2022-10-18T11:18:30.291Z,18.00
2022-10-18T11:21:33.193Z,21.50
2022-10-18T11:24:36.665Z,15.77
2022-10-18T11:27:49.378Z,19.33
2022-10-18T11:31:29.725Z,19.80
2022-10-18T11:35:20.227Z,18.20
2022-10-18T11:38:53.492Z,18.58
2022-10-18T11:42:39.162Z,19.47
2022-10-18T11:46:03.509Z,17.33
2022-10-18T11:49:43.264Z,18.50
2022-10-18T11:53:03.786Z,21.70
2022-10-18T11:56:27.189Z,14.70
2022-10-18T11:59:46.038Z,17.13
2022-10-18T12:02:56.320Z,16.37
2022-10-18T12:06:03.805Z,19.25
2022-10-18T12:09:32.728Z,17.48
2022-10-18T12:12:42.074Z,17.50
2022-10-18T12:15:45.279Z,15.77
2022-10-18T12:18:57.889Z,18.83
2022-10-18T12:22:21.432Z,17.00
2022-10-18T12:25:23.804Z,20.17
2022-10-18T12:28:28.919Z,16.55
2022-10-18T12:31:45.781Z,16.77
2022-10-18T12:34:55.133Z,14.68
2022-10-18T12:38:23.971Z,17.65
2022-10-18T12:41:30.376Z,19.10
2022-10-18T12:44:34.712Z,17.95
2022-10-18T12:47:36.896Z,15.37
2022-10-18T12:50:42.275Z,15.18
2022-10-18T12:53:54.837Z,17.90
2022-10-18T12:56:58.074Z,17.67
2022-10-18T13:00:00.199Z,18.15
2022-10-18T13:03:16.640Z,17.77
2022-10-18T13:06:18.775Z,17.48
2022-10-18T13:09:21.830Z,16.42
2022-10-18T13:12:23.741Z,15.70
2022-10-18T13:15:52.976Z,16.52
2022-10-18T13:18:57.779Z,17.17
2022-10-18T13:22:41.471Z,15.40
2022-10-18T13:26:05.425Z,14.18
2022-10-18T13:29:33.946Z,14.55
2022-10-18T13:32:50.761Z,17.85
2022-10-18T13:36:05.492Z,15.83
2022-10-18T13:39:20.922Z,17.77
2022-10-18T13:42:32.364Z,16.10
2022-10-18T13:45:35.319Z,15.25
2022-10-18T13:48:37.366Z,17.50
2022-10-18T13:52:07.072Z,19.97
2022-10-18T13:55:26.295Z,16.33
2022-10-18T13:59:05.861Z,17.55
2022-10-18T14:02:51.702Z,18.02
2022-10-18T14:06:01.804Z,16.37
2022-10-18T14:09:26.307Z,17.87
2022-10-18T14:12:44.382Z,15.25
2022-10-18T14:15:51.763Z,16.15
2022-10-18T14:19:01.601Z,18.20
2022-10-18T14:22:13.098Z,15.93
2022-10-18T14:25:37.170Z,16.47
2022-10-18T14:28:58.472Z,16.40
2022-10-18T14:32:01.176Z,16.83
2022-10-18T14:35:31.180Z,17.45
2022-10-18T14:38:25.650Z,16.55
2022-10-18T14:41:38.581Z,14.70
2022-10-18T14:44:40.659Z,17.10
2022-10-18T14:47:45.799Z,15.88
2022-10-18T14:50:59.307Z,16.42
2022-10-18T14:54:01.837Z,15.07
2022-10-18T14:57:05.973Z,17.00
2022-10-18T15:00:09.773Z,17.58
2022-10-18T15:03:15.901Z,16.73
2022-10-18T15:06:19.742Z,22.37
2022-10-18T15:09:24.184Z,16.12
2022-10-18T15:12:33.908Z,19.37
2022-10-18T15:15:48.026Z,20.20
2022-10-18T15:19:03.163Z,17.55
2022-10-18T15:25:32.930Z,18.35
2022-10-18T15:28:40.125Z,20.77
2022-10-18T15:31:44.501Z,19.08
2022-10-18T15:34:46.905Z,20.08
2022-10-18T15:37:49.009Z,20.27
2022-10-18T15:40:52.054Z,21.90
2022-10-18T15:44:10.104Z,21.83
2022-10-18T15:47:21.114Z,21.30
2022-10-18T15:50:50.583Z,24.30
2022-10-18T15:53:54.476Z,24.60
2022-10-18T15:56:57.042Z,26.20
2022-10-18T16:00:05.025Z,22.70
2022-10-18T16:03:09.329Z,25.70
2022-10-18T16:06:15.887Z,24.00
2022-10-18T16:09:22.651Z,23.17
2022-10-18T16:12:24.590Z,25.70
2022-10-18T16:15:26.617Z,29.63
2022-10-18T16:18:28.627Z,30.00
2022-10-18T16:21:38.190Z,31.87
2022-10-18T16:24:40.656Z,34.25
2022-10-18T16:27:42.606Z,29.00
2022-10-18T16:30:50.510Z,32.27
2022-10-18T16:33:54.118Z,31.73
2022-10-18T16:36:56.140Z,37.63
2022-10-18T16:39:58.086Z,34.40
2022-10-18T16:43:00.094Z,36.90
2022-10-18T16:46:03.090Z,41.80
2022-10-18T16:49:06.491Z,43.42
2022-10-18T16:52:08.742Z,38.72
2022-10-18T16:55:17.199Z,36.72
2022-10-18T16:58:19.254Z,36.30
2022-10-18T17:01:23.747Z,36.70
2022-10-18T17:04:25.759Z,37.00
2022-10-18T17:07:27.730Z,45.83
2022-10-18T17:10:30.499Z,37.53
2022-10-18T17:13:32.469Z,38.60
2022-10-18T17:16:37.586Z,53.87
2022-10-18T17:19:39.651Z,51.55
2022-10-18T17:22:41.734Z,45.42
2022-10-18T17:25:57.571Z,43.85
2022-10-18T17:29:08.720Z,44.95
2022-10-18T17:32:11.173Z,44.00
2022-10-18T17:35:13.746Z,43.20
2022-10-18T17:38:16.396Z,42.47
2022-10-18T17:41:18.642Z,40.65
2022-10-18T17:44:21.581Z,46.10
2022-10-18T17:47:24.203Z,41.60
2022-10-18T17:50:35.980Z,46.25
2022-10-18T17:53:39.269Z,44.30
2022-10-18T17:56:42.213Z,42.90
2022-10-18T17:59:45.224Z,44.20
2022-10-18T18:02:48.049Z,42.57
2022-10-18T18:05:53.798Z,42.03
2022-10-18T18:08:57.804Z,42.05
2022-10-18T18:12:00.203Z,45.42
2022-10-18T18:15:02.662Z,41.13
2022-10-18T18:18:05.615Z,37.30
2022-10-18T18:21:09.486Z,42.17
2022-10-18T18:24:14.525Z,38.00
2022-10-18T18:27:17.375Z,43.08
2022-10-18T18:30:22.580Z,44.03
2022-10-18T18:33:25.879Z,42.83
2022-10-18T18:36:29.652Z,44.92
2022-10-18T18:39:35.811Z,40.83
2022-10-18T18:42:38.505Z,45.25
2022-10-18T18:45:41.199Z,49.53
2022-10-18T18:48:44.165Z,44.50
2022-10-18T18:51:48.885Z,42.13
2022-10-18T18:54:51.708Z,46.55
2022-10-18T18:57:54.551Z,43.55
2022-10-18T19:00:57.793Z,44.73
2022-10-18T19:04:01.573Z,44.33
2022-10-18T19:07:04.327Z,42.05
2022-10-18T19:10:07.490Z,38.58
2022-10-18T19:13:11.112Z,39.92
2022-10-18T19:16:20.327Z,41.83
2022-10-18T19:19:24.753Z,39.97
2022-10-18T19:22:27.570Z,44.33
2022-10-18T19:25:29.994Z,41.35
2022-10-18T19:28:32.861Z,44.80
2022-10-18T19:31:36.490Z,40.43
2022-10-18T19:34:39.938Z,38.63
2022-10-18T19:37:42.717Z,42.90
2022-10-18T19:41:04.756Z,41.05
2022-10-18T19:44:07.598Z,44.88
2022-10-18T19:47:14.720Z,46.17
2022-10-18T19:50:18.008Z,50.43
2022-10-18T19:53:21.016Z,43.45
2022-10-18T19:56:26.097Z,44.83
2022-10-18T19:59:29.426Z,49.88
2022-10-18T20:02:32.310Z,68.27
2022-10-18T20:05:34.687Z,71.27
2022-10-18T20:08:37.846Z,64.90
2022-10-18T20:11:40.319Z,66.35
2022-10-18T20:14:42.396Z,48.15
2022-10-18T20:17:44.427Z,47.13
2022-10-18T20:20:48.403Z,37.60
2022-10-18T20:23:50.372Z,37.47
2022-10-18T20:29:55.184Z,44.40
2022-10-18T20:32:57.218Z,42.60
2022-10-18T20:36:08.021Z,48.03
2022-10-18T20:39:10.171Z,46.20
2022-10-18T20:42:12.256Z,48.65
2022-10-18T20:45:14.301Z,54.33
2022-10-18T20:48:16.335Z,54.80
2022-10-18T20:51:20.022Z,51.63
2022-10-18T20:54:22.861Z,54.20
2022-10-18T20:57:24.979Z,46.05
2022-10-18T21:00:27.962Z,48.58
2022-10-18T21:03:29.946Z,45.83
2022-10-18T21:06:44.846Z,48.87
2022-10-18T21:09:46.826Z,50.60
2022-10-18T21:12:48.930Z,50.50
2022-10-18T21:15:58.554Z,48.75
2022-10-18T21:19:08.811Z,55.33
2022-10-18T21:22:11.007Z,51.57
2022-10-18T21:25:13.008Z,49.95
2022-10-18T21:28:16.346Z,51.15
2022-10-18T21:31:21.256Z,47.20
2022-10-18T21:34:23.357Z,49.00
2022-10-18T21:37:25.275Z,43.53
2022-10-18T21:40:29.890Z,57.53
2022-10-18T21:43:31.832Z,49.83
2022-10-18T21:46:33.868Z,54.95
2022-10-18T21:49:35.806Z,48.97
2022-10-18T21:52:38.329Z,47.63
2022-10-18T21:55:40.253Z,46.78
2022-10-18T21:58:43.058Z,42.78
2022-10-18T22:01:45.813Z,44.95
2022-10-18T22:04:49.759Z,47.53
2022-10-18T22:07:51.755Z,38.93
2022-10-18T22:10:53.834Z,39.95
2022-10-18T22:13:56.240Z,36.88
2022-10-18T22:16:58.278Z,39.25
2022-10-18T22:20:00.402Z,39.17
2022-10-18T22:23:02.395Z,40.03
2022-10-18T22:26:08.073Z,43.38
2022-10-18T22:29:15.057Z,42.00
2022-10-18T22:32:17.035Z,43.58
2022-10-18T22:35:18.967Z,42.87
2022-10-18T22:38:21.005Z,40.67
2022-10-18T22:41:22.988Z,39.35
2022-10-18T22:44:25.451Z,40.63
2022-10-18T22:47:27.477Z,38.72
2022-10-18T22:50:29.410Z,39.93
2022-10-18T22:53:32.422Z,45.60
2022-10-18T22:56:34.905Z,42.40
2022-10-18T22:59:36.928Z,39.47
2022-10-18T23:02:38.927Z,40.05
2022-10-18T23:05:43.055Z,43.67
2022-10-18T23:08:45.004Z,38.43
2022-10-18T23:11:48.131Z,38.35
2022-10-18T23:14:50.221Z,41.25
2022-10-18T23:17:54.730Z,42.05
2022-10-18T23:21:09.070Z,40.03
2022-10-18T23:24:11.093Z,36.33
2022-10-18T23:27:13.147Z,35.38
2022-10-18T23:30:23.223Z,40.38
2022-10-18T23:33:25.222Z,36.20
2022-10-18T23:36:27.466Z,38.60
2022-10-18T23:39:29.399Z,38.87
2022-10-18T23:42:31.605Z,39.67
2022-10-18T23:45:33.555Z,38.45
2022-10-18T23:48:35.649Z,36.13
2022-10-18T23:51:37.639Z,38.17
2022-10-18T23:54:39.879Z,39.07
2022-10-18T23:57:41.843Z,37.65
